sensor_id;sensor_type;location;lat;lon;timestamp;P1;durP1;ratioP1;P2;durP2;ratioP2
2313;SDS011;42279;51.388;7.000;2023-03-01T00:00:45;10.70;;;9.57;;
2313;SDS011;42279;51.388;7.000;2023-03-01T00:03:11;10.55;;;9.50;;
2313;SDS011;42279;51.388;7.000;2023-03-01T00:05:43;17.10;;;10.57;;
2313;SDS011;42279;51.388;7.000;2023-03-01T00:08:10;11.10;;;9.60;;
2313;SDS011;42279;51.388;7.000;2023-03-01T00:10:36;16.10;;;10.30;;
2313;SDS011;42279;51.388;7.000;2023-03-01T00:13:02;11.13;;;10.03;;
2313;SDS011;42279;51.388;7.000;2023-03-01T00:15:30;10.55;;;9.52;;
2313;SDS011;42279;51.388;7.000;2023-03-01T00:17:56;10.93;;;9.77;;
2313;SDS011;42279;51.388;7.000;2023-03-01T00:20:22;10.60;;;9.60;;
2313;SDS011;42279;51.388;7.000;2023-03-01T00:22:51;10.18;;;9.18;;
2313;SDS011;42279;51.388;7.000;2023-03-01T00:25:17;11.60;;;9.10;;
2313;SDS011;42279;51.388;7.000;2023-03-01T00:27:43;8.30;;;7.50;;
2313;SDS011;42279;51.388;7.000;2023-03-01T00:30:09;10.47;;;9.47;;
2313;SDS011;42279;51.388;7.000;2023-03-01T00:32:35;11.15;;;9.40;;
2313;SDS011;42279;51.388;7.000;2023-03-01T00:35:01;10.47;;;8.40;;
2313;SDS011;42279;51.388;7.000;2023-03-01T00:37:27;10.07;;;9.00;;
2313;SDS011;42279;51.388;7.000;2023-03-01T00:39:53;14.25;;;9.68;;
2313;SDS011;42279;51.388;7.000;2023-03-01T00:42:19;9.90;;;8.90;;
2313;SDS011;42279;51.388;7.000;2023-03-01T00:44:47;10.27;;;8.43;;
2313;SDS011;42279;51.388;7.000;2023-03-01T00:47:13;16.47;;;9.37;;
2313;SDS011;42279;51.388;7.000;2023-03-01T00:49:39;12.95;;;9.88;;
2313;SDS011;42279;51.388;7.000;2023-03-01T00:52:05;8.82;;;8.20;;
2313;SDS011;42279;51.388;7.000;2023-03-01T00:54:31;10.98;;;9.82;;
2313;SDS011;42279;51.388;7.000;2023-03-01T00:56:58;9.73;;;8.77;;
2313;SDS011;42279;51.388;7.000;2023-03-01T00:59:27;15.50;;;10.00;;
2313;SDS011;42279;51.388;7.000;2023-03-01T01:01:53;19.50;;;9.97;;
2313;SDS011;42279;51.388;7.000;2023-03-01T01:04:19;13.43;;;10.45;;
2313;SDS011;42279;51.388;7.000;2023-03-01T01:06:45;11.63;;;9.65;;
2313;SDS011;42279;51.388;7.000;2023-03-01T01:09:13;12.38;;;9.80;;
2313;SDS011;42279;51.388;7.000;2023-03-01T01:11:42;13.85;;;10.60;;
2313;SDS011;42279;51.388;7.000;2023-03-01T01:14:08;14.70;;;11.60;;
2313;SDS011;42279;51.388;7.000;2023-03-01T01:16:34;13.57;;;10.02;;
2313;SDS011;42279;51.388;7.000;2023-03-01T01:19:00;12.40;;;10.27;;
2313;SDS011;42279;51.388;7.000;2023-03-01T01:21:26;10.98;;;9.70;;
2313;SDS011;42279;51.388;7.000;2023-03-01T01:23:52;12.10;;;10.80;;
2313;SDS011;42279;51.388;7.000;2023-03-01T01:26:20;11.07;;;9.90;;
2313;SDS011;42279;51.388;7.000;2023-03-01T01:28:47;9.35;;;7.93;;
2313;SDS011;42279;51.388;7.000;2023-03-01T01:31:13;10.48;;;9.00;;
2313;SDS011;42279;51.388;7.000;2023-03-01T01:33:39;14.13;;;11.20;;
2313;SDS011;42279;51.388;7.000;2023-03-01T01:36:06;11.30;;;10.10;;
2313;SDS011;42279;51.388;7.000;2023-03-01T01:38:32;9.07;;;8.17;;
2313;SDS011;42279;51.388;7.000;2023-03-01T01:40:58;11.90;;;10.67;;
2313;SDS011;42279;51.388;7.000;2023-03-01T01:43:35;14.10;;;11.15;;
2313;SDS011;42279;51.388;7.000;2023-03-01T01:46:04;11.87;;;10.47;;
2313;SDS011;42279;51.388;7.000;2023-03-01T01:48:55;10.75;;;9.23;;
2313;SDS011;42279;51.388;7.000;2023-03-01T01:51:20;13.48;;;10.57;;
2313;SDS011;42279;51.388;7.000;2023-03-01T01:53:48;11.23;;;9.80;;
2313;SDS011;42279;51.388;7.000;2023-03-01T01:56:16;14.75;;;11.80;;
2313;SDS011;42279;51.388;7.000;2023-03-01T01:58:45;13.07;;;10.23;;
2313;SDS011;42279;51.388;7.000;2023-03-01T02:01:12;12.10;;;10.80;;
2313;SDS011;42279;51.388;7.000;2023-03-01T02:03:39;12.63;;;10.80;;
2313;SDS011;42279;51.388;7.000;2023-03-01T02:08:36;13.27;;;11.43;;
2313;SDS011;42279;51.388;7.000;2023-03-01T02:11:03;11.50;;;9.65;;
2313;SDS011;42279;51.388;7.000;2023-03-01T02:13:30;11.35;;;9.52;;
2313;SDS011;42279;51.388;7.000;2023-03-01T02:15:56;18.98;;;10.38;;
2313;SDS011;42279;51.388;7.000;2023-03-01T02:18:22;13.05;;;11.63;;
2313;SDS011;42279;51.388;7.000;2023-03-01T02:23:15;13.10;;;10.77;;
2313;SDS011;42279;51.388;7.000;2023-03-01T02:30:43;11.33;;;10.20;;
2313;SDS011;42279;51.388;7.000;2023-03-01T02:33:29;13.55;;;11.02;;
2313;SDS011;42279;51.388;7.000;2023-03-01T02:35:59;18.38;;;12.10;;
2313;SDS011;42279;51.388;7.000;2023-03-01T02:38:26;11.60;;;9.30;;
2313;SDS011;42279;51.388;7.000;2023-03-01T02:40:52;14.38;;;10.15;;
2313;SDS011;42279;51.388;7.000;2023-03-01T02:43:19;14.02;;;10.82;;
2313;SDS011;42279;51.388;7.000;2023-03-01T02:45:49;13.10;;;11.10;;
2313;SDS011;42279;51.388;7.000;2023-03-01T02:48:15;10.30;;;9.35;;
2313;SDS011;42279;51.388;7.000;2023-03-01T02:53:15;13.75;;;9.95;;
2313;SDS011;42279;51.388;7.000;2023-03-01T02:55:43;12.73;;;8.70;;
2313;SDS011;42279;51.388;7.000;2023-03-01T02:58:09;8.70;;;8.00;;
2313;SDS011;42279;51.388;7.000;2023-03-01T03:00:36;11.95;;;10.68;;
2313;SDS011;42279;51.388;7.000;2023-03-01T03:03:05;12.80;;;11.07;;
2313;SDS011;42279;51.388;7.000;2023-03-01T03:05:32;11.77;;;9.75;;
2313;SDS011;42279;51.388;7.000;2023-03-01T03:07:59;18.25;;;12.48;;
2313;SDS011;42279;51.388;7.000;2023-03-01T03:10:26;15.68;;;12.13;;
2313;SDS011;42279;51.388;7.000;2023-03-01T03:12:54;16.27;;;11.05;;
2313;SDS011;42279;51.388;7.000;2023-03-01T03:15:20;13.85;;;11.15;;
2313;SDS011;42279;51.388;7.000;2023-03-01T03:17:47;20.23;;;9.95;;
2313;SDS011;42279;51.388;7.000;2023-03-01T03:20:14;16.20;;;10.15;;
2313;SDS011;42279;51.388;7.000;2023-03-01T03:22:43;16.00;;;10.77;;
2313;SDS011;42279;51.388;7.000;2023-03-01T03:25:10;10.50;;;9.50;;
2313;SDS011;42279;51.388;7.000;2023-03-01T03:27:37;14.20;;;10.40;;
2313;SDS011;42279;51.388;7.000;2023-03-01T03:30:04;12.02;;;10.60;;
2313;SDS011;42279;51.388;7.000;2023-03-01T03:32:34;16.95;;;11.93;;
2313;SDS011;42279;51.388;7.000;2023-03-01T03:35:00;14.70;;;11.35;;
2313;SDS011;42279;51.388;7.000;2023-03-01T03:37:26;12.80;;;10.70;;
2313;SDS011;42279;51.388;7.000;2023-03-01T03:40:11;13.60;;;12.05;;
2313;SDS011;42279;51.388;7.000;2023-03-01T03:42:40;19.70;;;9.40;;
2313;SDS011;42279;51.388;7.000;2023-03-01T03:45:06;10.15;;;9.25;;
2313;SDS011;42279;51.388;7.000;2023-03-01T03:47:32;16.83;;;11.18;;
2313;SDS011;42279;51.388;7.000;2023-03-01T03:49:58;14.90;;;11.98;;
2313;SDS011;42279;51.388;7.000;2023-03-01T03:52:24;14.90;;;11.23;;
2313;SDS011;42279;51.388;7.000;2023-03-01T03:54:50;12.30;;;10.93;;
2313;SDS011;42279;51.388;7.000;2023-03-01T03:57:16;15.77;;;11.37;;
2313;SDS011;42279;51.388;7.000;2023-03-01T03:59:42;14.93;;;12.07;;
2313;SDS011;42279;51.388;7.000;2023-03-01T04:02:08;13.63;;;11.27;;
2313;SDS011;42279;51.388;7.000;2023-03-01T04:04:34;13.37;;;10.10;;
2313;SDS011;42279;51.388;7.000;2023-03-01T04:07:00;13.93;;;10.80;;
2313;SDS011;42279;51.388;7.000;2023-03-01T04:09:26;16.40;;;11.80;;
2313;SDS011;42279;51.388;7.000;2023-03-01T04:11:52;14.13;;;11.60;;
2313;SDS011;42279;51.388;7.000;2023-03-01T04:14:18;16.53;;;11.63;;
2313;SDS011;42279;51.388;7.000;2023-03-01T04:16:44;14.88;;;11.45;;
2313;SDS011;42279;51.388;7.000;2023-03-01T04:19:10;15.25;;;10.45;;
2313;SDS011;42279;51.388;7.000;2023-03-01T04:21:36;12.90;;;11.52;;
2313;SDS011;42279;51.388;7.000;2023-03-01T04:24:02;16.60;;;12.70;;
2313;SDS011;42279;51.388;7.000;2023-03-01T04:26:28;11.45;;;10.32;;
2313;SDS011;42279;51.388;7.000;2023-03-01T04:28:54;14.30;;;12.05;;
2313;SDS011;42279;51.388;7.000;2023-03-01T04:31:20;14.57;;;12.63;;
2313;SDS011;42279;51.388;7.000;2023-03-01T04:33:48;11.50;;;9.80;;
2313;SDS011;42279;51.388;7.000;2023-03-01T04:36:16;15.27;;;11.77;;
2313;SDS011;42279;51.388;7.000;2023-03-01T04:38:42;14.75;;;11.00;;
2313;SDS011;42279;51.388;7.000;2023-03-01T04:41:12;13.95;;;11.80;;
2313;SDS011;42279;51.388;7.000;2023-03-01T04:43:38;14.73;;;10.97;;
2313;SDS011;42279;51.388;7.000;2023-03-01T04:46:05;15.73;;;10.60;;
2313;SDS011;42279;51.388;7.000;2023-03-01T04:48:33;15.38;;;11.68;;
2313;SDS011;42279;51.388;7.000;2023-03-01T04:50:59;12.75;;;10.02;;
2313;SDS011;42279;51.388;7.000;2023-03-01T04:53:25;21.40;;;12.63;;
2313;SDS011;42279;51.388;7.000;2023-03-01T04:55:53;10.13;;;8.52;;
2313;SDS011;42279;51.388;7.000;2023-03-01T04:58:19;9.20;;;8.25;;
2313;SDS011;42279;51.388;7.000;2023-03-01T05:00:45;14.17;;;12.20;;
2313;SDS011;42279;51.388;7.000;2023-03-01T05:03:11;15.38;;;11.88;;
2313;SDS011;42279;51.388;7.000;2023-03-01T05:05:38;16.90;;;11.75;;
2313;SDS011;42279;51.388;7.000;2023-03-01T05:08:05;15.77;;;11.30;;
2313;SDS011;42279;51.388;7.000;2023-03-01T05:10:32;15.75;;;11.68;;
2313;SDS011;42279;51.388;7.000;2023-03-01T05:13:00;11.57;;;10.20;;
2313;SDS011;42279;51.388;7.000;2023-03-01T05:15:26;28.33;;;18.97;;
2313;SDS011;42279;51.388;7.000;2023-03-01T05:17:53;15.15;;;12.05;;
2313;SDS011;42279;51.388;7.000;2023-03-01T05:20:20;10.85;;;9.73;;
2313;SDS011;42279;51.388;7.000;2023-03-01T05:22:49;13.40;;;10.35;;
2313;SDS011;42279;51.388;7.000;2023-03-01T05:25:16;13.45;;;11.32;;
2313;SDS011;42279;51.388;7.000;2023-03-01T05:27:42;13.07;;;11.77;;
2313;SDS011;42279;51.388;7.000;2023-03-01T05:30:08;18.92;;;13.10;;
2313;SDS011;42279;51.388;7.000;2023-03-01T05:32:41;15.10;;;10.30;;
2313;SDS011;42279;51.388;7.000;2023-03-01T05:35:08;14.38;;;10.40;;
2313;SDS011;42279;51.388;7.000;2023-03-01T05:37:38;12.73;;;9.23;;
2313;SDS011;42279;51.388;7.000;2023-03-01T05:40:05;7.80;;;7.13;;
2313;SDS011;42279;51.388;7.000;2023-03-01T05:42:32;11.40;;;8.52;;
2313;SDS011;42279;51.388;7.000;2023-03-01T05:44:59;14.52;;;11.00;;
2313;SDS011;42279;51.388;7.000;2023-03-01T05:47:25;12.43;;;10.77;;
2313;SDS011;42279;51.388;7.000;2023-03-01T05:49:51;16.30;;;9.38;;
2313;SDS011;42279;51.388;7.000;2023-03-01T05:52:17;16.08;;;10.75;;
2313;SDS011;42279;51.388;7.000;2023-03-01T05:54:43;16.58;;;11.52;;
2313;SDS011;42279;51.388;7.000;2023-03-01T05:57:09;15.02;;;11.32;;
2313;SDS011;42279;51.388;7.000;2023-03-01T05:59:35;17.47;;;10.73;;
2313;SDS011;42279;51.388;7.000;2023-03-01T06:02:01;21.07;;;11.47;;
2313;SDS011;42279;51.388;7.000;2023-03-01T06:04:28;10.27;;;8.32;;
2313;SDS011;42279;51.388;7.000;2023-03-01T06:06:54;11.88;;;10.30;;
2313;SDS011;42279;51.388;7.000;2023-03-01T06:09:20;14.90;;;11.83;;
2313;SDS011;42279;51.388;7.000;2023-03-01T06:11:46;14.70;;;10.82;;
2313;SDS011;42279;51.388;7.000;2023-03-01T06:14:12;24.55;;;12.63;;
2313;SDS011;42279;51.388;7.000;2023-03-01T06:16:39;15.85;;;11.45;;
2313;SDS011;42279;51.388;7.000;2023-03-01T06:19:05;11.27;;;10.20;;
2313;SDS011;42279;51.388;7.000;2023-03-01T06:21:31;16.27;;;10.00;;
2313;SDS011;42279;51.388;7.000;2023-03-01T06:23:57;10.30;;;9.20;;
2313;SDS011;42279;51.388;7.000;2023-03-01T06:26:23;13.97;;;12.47;;
2313;SDS011;42279;51.388;7.000;2023-03-01T06:28:49;16.23;;;11.52;;
2313;SDS011;42279;51.388;7.000;2023-03-01T06:31:15;12.07;;;10.95;;
2313;SDS011;42279;51.388;7.000;2023-03-01T06:33:41;12.00;;;10.73;;
2313;SDS011;42279;51.388;7.000;2023-03-01T06:36:09;22.00;;;12.70;;
2313;SDS011;42279;51.388;7.000;2023-03-01T06:38:35;16.15;;;12.35;;
2313;SDS011;42279;51.388;7.000;2023-03-01T06:41:01;18.30;;;12.00;;
2313;SDS011;42279;51.388;7.000;2023-03-01T06:43:27;10.63;;;9.47;;
2313;SDS011;42279;51.388;7.000;2023-03-01T06:45:53;11.80;;;10.60;;
2313;SDS011;42279;51.388;7.000;2023-03-01T06:48:19;12.17;;;10.50;;
2313;SDS011;42279;51.388;7.000;2023-03-01T06:50:45;13.03;;;11.37;;
2313;SDS011;42279;51.388;7.000;2023-03-01T06:53:11;16.23;;;11.77;;
2313;SDS011;42279;51.388;7.000;2023-03-01T06:55:37;18.43;;;9.93;;
2313;SDS011;42279;51.388;7.000;2023-03-01T06:58:03;21.43;;;12.50;;
2313;SDS011;42279;51.388;7.000;2023-03-01T07:00:30;14.75;;;12.23;;
2313;SDS011;42279;51.388;7.000;2023-03-01T07:02:59;13.25;;;11.88;;
2313;SDS011;42279;51.388;7.000;2023-03-01T07:05:26;18.63;;;14.23;;
2313;SDS011;42279;51.388;7.000;2023-03-01T07:07:53;10.35;;;7.40;;
2313;SDS011;42279;51.388;7.000;2023-03-01T07:10:20;14.80;;;11.20;;
2313;SDS011;42279;51.388;7.000;2023-03-01T07:12:46;15.48;;;13.88;;
2313;SDS011;42279;51.388;7.000;2023-03-01T07:15:12;14.93;;;13.20;;
2313;SDS011;42279;51.388;7.000;2023-03-01T07:17:39;12.80;;;10.77;;
2313;SDS011;42279;51.388;7.000;2023-03-01T07:20:06;13.05;;;10.85;;
2313;SDS011;42279;51.388;7.000;2023-03-01T07:22:32;14.57;;;11.40;;
2313;SDS011;42279;51.388;7.000;2023-03-01T07:24:58;18.30;;;11.30;;
2313;SDS011;42279;51.388;7.000;2023-03-01T07:27:24;11.40;;;9.77;;
2313;SDS011;42279;51.388;7.000;2023-03-01T07:29:50;12.90;;;10.70;;
2313;SDS011;42279;51.388;7.000;2023-03-01T07:32:16;11.73;;;10.57;;
2313;SDS011;42279;51.388;7.000;2023-03-01T07:34:42;12.70;;;10.33;;
2313;SDS011;42279;51.388;7.000;2023-03-01T07:37:08;11.77;;;10.40;;
2313;SDS011;42279;51.388;7.000;2023-03-01T07:39:34;11.77;;;10.67;;
2313;SDS011;42279;51.388;7.000;2023-03-01T07:42:00;11.87;;;10.77;;
2313;SDS011;42279;51.388;7.000;2023-03-01T07:44:29;18.47;;;11.10;;
2313;SDS011;42279;51.388;7.000;2023-03-01T07:46:55;14.77;;;12.93;;
2313;SDS011;42279;51.388;7.000;2023-03-01T07:49:23;13.83;;;11.00;;
2313;SDS011;42279;51.388;7.000;2023-03-01T07:51:51;14.77;;;11.97;;
2313;SDS011;42279;51.388;7.000;2023-03-01T07:54:17;14.33;;;11.87;;
2313;SDS011;42279;51.388;7.000;2023-03-01T07:56:43;12.37;;;11.03;;
2313;SDS011;42279;51.388;7.000;2023-03-01T07:59:10;12.80;;;11.53;;
2313;SDS011;42279;51.388;7.000;2023-03-01T08:01:37;15.60;;;12.13;;
2313;SDS011;42279;51.388;7.000;2023-03-01T08:04:07;13.73;;;10.80;;
2313;SDS011;42279;51.388;7.000;2023-03-01T08:06:34;11.30;;;10.30;;
2313;SDS011;42279;51.388;7.000;2023-03-01T08:09:00;16.03;;;10.73;;
2313;SDS011;42279;51.388;7.000;2023-03-01T08:11:26;12.30;;;11.10;;
2313;SDS011;42279;51.388;7.000;2023-03-01T08:13:55;29.33;;;11.80;;
2313;SDS011;42279;51.388;7.000;2023-03-01T08:16:22;11.90;;;10.73;;
2313;SDS011;42279;51.388;7.000;2023-03-01T08:18:48;16.30;;;11.80;;
2313;SDS011;42279;51.388;7.000;2023-03-01T08:21:15;19.57;;;11.50;;
2313;SDS011;42279;51.388;7.000;2023-03-01T08:23:42;10.67;;;9.57;;
2313;SDS011;42279;51.388;7.000;2023-03-01T08:26:16;11.60;;;10.47;;
2313;SDS011;42279;51.388;7.000;2023-03-01T08:28:46;14.40;;;10.90;;
2313;SDS011;42279;51.388;7.000;2023-03-01T08:31:16;13.67;;;9.77;;
2313;SDS011;42279;51.388;7.000;2023-03-01T08:33:42;13.90;;;9.83;;
2313;SDS011;42279;51.388;7.000;2023-03-01T08:36:09;12.57;;;11.40;;
2313;SDS011;42279;51.388;7.000;2023-03-01T08:38:35;11.73;;;10.30;;
2313;SDS011;42279;51.388;7.000;2023-03-01T08:41:04;11.40;;;10.50;;
2313;SDS011;42279;51.388;7.000;2023-03-01T08:43:30;11.20;;;10.20;;
2313;SDS011;42279;51.388;7.000;2023-03-01T08:45:56;12.17;;;11.10;;
2313;SDS011;42279;51.388;7.000;2023-03-01T08:48:22;11.67;;;10.57;;
2313;SDS011;42279;51.388;7.000;2023-03-01T08:50:48;11.87;;;10.73;;
2313;SDS011;42279;51.388;7.000;2023-03-01T08:53:14;11.60;;;10.40;;
2313;SDS011;42279;51.388;7.000;2023-03-01T08:55:40;11.57;;;10.47;;
2313;SDS011;42279;51.388;7.000;2023-03-01T08:58:06;11.33;;;10.30;;
2313;SDS011;42279;51.388;7.000;2023-03-01T09:00:32;10.93;;;9.83;;
2313;SDS011;42279;51.388;7.000;2023-03-01T09:02:59;10.53;;;9.57;;
2313;SDS011;42279;51.388;7.000;2023-03-01T09:05:25;13.80;;;9.97;;
2313;SDS011;42279;51.388;7.000;2023-03-01T09:07:51;12.10;;;9.17;;
2313;SDS011;42279;51.388;7.000;2023-03-01T09:10:17;9.97;;;8.93;;
2313;SDS011;42279;51.388;7.000;2023-03-01T09:12:43;16.37;;;9.23;;
2313;SDS011;42279;51.388;7.000;2023-03-01T09:15:09;9.70;;;8.90;;
2313;SDS011;42279;51.388;7.000;2023-03-01T09:17:35;10.50;;;9.30;;
2313;SDS011;42279;51.388;7.000;2023-03-01T09:20:01;10.67;;;9.80;;
2313;SDS011;42279;51.388;7.000;2023-03-01T09:22:30;10.77;;;9.77;;
2313;SDS011;42279;51.388;7.000;2023-03-01T09:24:56;10.43;;;9.60;;
2313;SDS011;42279;51.388;7.000;2023-03-01T09:27:24;9.50;;;8.60;;
2313;SDS011;42279;51.388;7.000;2023-03-01T09:29:50;8.77;;;8.17;;
2313;SDS011;42279;51.388;7.000;2023-03-01T09:32:16;8.40;;;7.87;;
2313;SDS011;42279;51.388;7.000;2023-03-01T09:34:42;9.37;;;8.70;;
2313;SDS011;42279;51.388;7.000;2023-03-01T09:37:30;9.90;;;9.10;;
2313;SDS011;42279;51.388;7.000;2023-03-01T09:39:56;9.00;;;8.20;;
2313;SDS011;42279;51.388;7.000;2023-03-01T09:42:22;12.30;;;8.03;;
2313;SDS011;42279;51.388;7.000;2023-03-01T09:44:51;8.20;;;7.60;;
2313;SDS011;42279;51.388;7.000;2023-03-01T09:47:20;9.20;;;8.30;;
2313;SDS011;42279;51.388;7.000;2023-03-01T09:50:20;8.57;;;7.87;;
2313;SDS011;42279;51.388;7.000;2023-03-01T09:55:11;10.00;;;9.00;;
2313;SDS011;42279;51.388;7.000;2023-03-01T10:03:16;9.40;;;8.50;;
2313;SDS011;42279;51.388;7.000;2023-03-01T10:05:44;9.67;;;9.00;;
2313;SDS011;42279;51.388;7.000;2023-03-01T10:08:25;9.10;;;8.50;;
2313;SDS011;42279;51.388;7.000;2023-03-01T10:19:03;8.53;;;7.93;;
2313;SDS011;42279;51.388;7.000;2023-03-01T10:21:40;9.43;;;8.67;;
2313;SDS011;42279;51.388;7.000;2023-03-01T10:24:14;9.43;;;8.77;;
2313;SDS011;42279;51.388;7.000;2023-03-01T10:27:03;9.17;;;8.47;;
2313;SDS011;42279;51.388;7.000;2023-03-01T10:29:35;9.50;;;8.60;;
2313;SDS011;42279;51.388;7.000;2023-03-01T10:32:09;9.83;;;9.03;;
2313;SDS011;42279;51.388;7.000;2023-03-01T10:34:40;9.47;;;8.80;;
2313;SDS011;42279;51.388;7.000;2023-03-01T10:37:19;8.70;;;8.00;;
2313;SDS011;42279;51.388;7.000;2023-03-01T10:42:27;8.30;;;7.80;;
2313;SDS011;42279;51.388;7.000;2023-03-01T10:44:55;9.63;;;8.87;;
2313;SDS011;42279;51.388;7.000;2023-03-01T10:47:25;9.67;;;8.90;;
2313;SDS011;42279;51.388;7.000;2023-03-01T10:49:53;10.07;;;9.27;;
2313;SDS011;42279;51.388;7.000;2023-03-01T10:52:21;9.00;;;8.20;;
2313;SDS011;42279;51.388;7.000;2023-03-01T10:54:55;9.83;;;8.60;;
2313;SDS011;42279;51.388;7.000;2023-03-01T10:57:27;9.77;;;8.77;;
2313;SDS011;42279;51.388;7.000;2023-03-01T11:00:00;10.33;;;9.40;;
2313;SDS011;42279;51.388;7.000;2023-03-01T11:02:28;7.87;;;7.17;;
2313;SDS011;42279;51.388;7.000;2023-03-01T11:05:02;7.90;;;7.40;;
2313;SDS011;42279;51.388;7.000;2023-03-01T11:07:28;8.03;;;7.43;;
2313;SDS011;42279;51.388;7.000;2023-03-01T11:09:54;8.93;;;8.20;;
2313;SDS011;42279;51.388;7.000;2023-03-01T11:14:56;8.57;;;7.88;;
2313;SDS011;42279;51.388;7.000;2023-03-01T11:17:24;13.60;;;8.70;;
2313;SDS011;42279;51.388;7.000;2023-03-01T11:22:44;8.30;;;7.80;;
2313;SDS011;42279;51.388;7.000;2023-03-01T11:25:21;10.77;;;8.20;;
2313;SDS011;42279;51.388;7.000;2023-03-01T11:27:49;9.00;;;8.23;;
2313;SDS011;42279;51.388;7.000;2023-03-01T11:33:04;9.00;;;8.17;;
2313;SDS011;42279;51.388;7.000;2023-03-01T11:35:34;9.80;;;8.20;;
2313;SDS011;42279;51.388;7.000;2023-03-01T11:38:05;8.43;;;7.83;;
2313;SDS011;42279;51.388;7.000;2023-03-01T11:41:18;8.93;;;8.10;;
2313;SDS011;42279;51.388;7.000;2023-03-01T11:43:40;9.07;;;8.10;;
2313;SDS011;42279;51.388;7.000;2023-03-01T11:51:41;8.20;;;7.50;;
2313;SDS011;42279;51.388;7.000;2023-03-01T11:54:12;8.93;;;8.20;;
2313;SDS011;42279;51.388;7.000;2023-03-01T12:06:56;8.43;;;7.73;;
2313;SDS011;42279;51.388;7.000;2023-03-01T12:09:41;8.70;;;7.83;;
2313;SDS011;42279;51.388;7.000;2023-03-01T12:12:24;8.67;;;8.00;;
2313;SDS011;42279;51.388;7.000;2023-03-01T12:22:54;8.10;;;7.60;;
2313;SDS011;42279;51.388;7.000;2023-03-01T12:25:27;8.90;;;8.20;;
2313;SDS011;42279;51.388;7.000;2023-03-01T12:30:31;9.77;;;8.87;;
2313;SDS011;42279;51.388;7.000;2023-03-01T12:46:27;8.37;;;7.73;;
2313;SDS011;42279;51.388;7.000;2023-03-01T12:49:16;8.10;;;7.50;;
2313;SDS011;42279;51.388;7.000;2023-03-01T12:51:50;7.77;;;7.27;;
2313;SDS011;42279;51.388;7.000;2023-03-01T12:54:22;9.00;;;8.30;;
2313;SDS011;42279;51.388;7.000;2023-03-01T12:56:52;8.53;;;7.83;;
2313;SDS011;42279;51.388;7.000;2023-03-01T12:59:20;8.77;;;8.20;;
2313;SDS011;42279;51.388;7.000;2023-03-01T13:01:55;9.20;;;7.77;;
2313;SDS011;42279;51.388;7.000;2023-03-01T13:04:35;8.73;;;7.93;;
2313;SDS011;42279;51.388;7.000;2023-03-01T13:11:57;9.43;;;8.73;;
2313;SDS011;42279;51.388;7.000;2023-03-01T13:16:50;9.47;;;8.67;;
2313;SDS011;42279;51.388;7.000;2023-03-01T13:19:17;8.60;;;7.90;;
2313;SDS011;42279;51.388;7.000;2023-03-01T13:21:44;8.40;;;7.80;;
2313;SDS011;42279;51.388;7.000;2023-03-01T13:29:50;9.47;;;8.73;;
2313;SDS011;42279;51.388;7.000;2023-03-01T13:32:23;9.47;;;8.80;;
2313;SDS011;42279;51.388;7.000;2023-03-01T13:34:51;11.00;;;8.73;;
2313;SDS011;42279;51.388;7.000;2023-03-01T13:37:27;9.30;;;8.27;;
2313;SDS011;42279;51.388;7.000;2023-03-01T13:39:54;12.77;;;11.47;;
2313;SDS011;42279;51.388;7.000;2023-03-01T13:42:30;8.90;;;8.20;;
2313;SDS011;42279;51.388;7.000;2023-03-01T13:44:59;7.97;;;7.27;;
2313;SDS011;42279;51.388;7.000;2023-03-01T13:47:28;9.63;;;8.83;;
2313;SDS011;42279;51.388;7.000;2023-03-01T13:49:58;9.03;;;8.23;;
2313;SDS011;42279;51.388;7.000;2023-03-01T13:55:29;8.33;;;7.30;;
2313;SDS011;42279;51.388;7.000;2023-03-01T13:57:52;9.67;;;8.73;;
2313;SDS011;42279;51.388;7.000;2023-03-01T14:05:31;8.60;;;7.90;;
2313;SDS011;42279;51.388;7.000;2023-03-01T14:07:57;8.90;;;8.20;;
2313;SDS011;42279;51.388;7.000;2023-03-01T14:10:25;8.97;;;7.97;;
2313;SDS011;42279;51.388;7.000;2023-03-01T14:13:02;8.90;;;7.70;;
2313;SDS011;42279;51.388;7.000;2023-03-01T14:15:34;8.23;;;7.43;;
2313;SDS011;42279;51.388;7.000;2023-03-01T14:18:04;9.20;;;7.23;;
2313;SDS011;42279;51.388;7.000;2023-03-01T14:20:33;7.63;;;7.13;;
2313;SDS011;42279;51.388;7.000;2023-03-01T14:23:08;8.57;;;6.93;;
2313;SDS011;42279;51.388;7.000;2023-03-01T14:25:36;24.40;;;8.40;;
2313;SDS011;42279;51.388;7.000;2023-03-01T14:30:34;8.90;;;8.20;;
2313;SDS011;42279;51.388;7.000;2023-03-01T14:33:03;10.63;;;7.53;;
2313;SDS011;42279;51.388;7.000;2023-03-01T14:35:31;6.87;;;6.47;;
2313;SDS011;42279;51.388;7.000;2023-03-01T14:37:58;8.90;;;8.10;;
2313;SDS011;42279;51.388;7.000;2023-03-01T14:42:50;9.40;;;8.57;;
2313;SDS011;42279;51.388;7.000;2023-03-01T14:45:17;8.73;;;8.03;;
2313;SDS011;42279;51.388;7.000;2023-03-01T14:47:43;10.10;;;9.10;;
2313;SDS011;42279;51.388;7.000;2023-03-01T14:50:15;8.43;;;7.83;;
2313;SDS011;42279;51.388;7.000;2023-03-01T14:52:45;9.23;;;8.20;;
2313;SDS011;42279;51.388;7.000;2023-03-01T14:57:44;8.10;;;7.53;;
2313;SDS011;42279;51.388;7.000;2023-03-01T15:00:13;8.47;;;7.77;;
2313;SDS011;42279;51.388;7.000;2023-03-01T15:02:41;10.20;;;7.83;;
2313;SDS011;42279;51.388;7.000;2023-03-01T15:05:08;9.40;;;7.93;;
2313;SDS011;42279;51.388;7.000;2023-03-01T15:07:36;8.20;;;7.50;;
2313;SDS011;42279;51.388;7.000;2023-03-01T15:10:03;9.40;;;7.80;;
2313;SDS011;42279;51.388;7.000;2023-03-01T15:12:36;7.20;;;6.57;;
2313;SDS011;42279;51.388;7.000;2023-03-01T15:15:18;10.43;;;7.80;;
2313;SDS011;42279;51.388;7.000;2023-03-01T15:17:48;6.50;;;6.10;;
2313;SDS011;42279;51.388;7.000;2023-03-01T15:20:17;12.63;;;7.57;;
2313;SDS011;42279;51.388;7.000;2023-03-01T15:22:46;6.27;;;5.70;;
2313;SDS011;42279;51.388;7.000;2023-03-01T15:25:16;7.20;;;6.60;;
2313;SDS011;42279;51.388;7.000;2023-03-01T15:27:47;9.17;;;6.73;;
2313;SDS011;42279;51.388;7.000;2023-03-01T15:30:17;6.50;;;6.00;;
2313;SDS011;42279;51.388;7.000;2023-03-01T15:32:44;6.73;;;6.23;;
2313;SDS011;42279;51.388;7.000;2023-03-01T15:37:55;14.03;;;9.60;;
2313;SDS011;42279;51.388;7.000;2023-03-01T15:40:26;8.57;;;7.87;;
2313;SDS011;42279;51.388;7.000;2023-03-01T15:43:02;7.40;;;6.70;;
2313;SDS011;42279;51.388;7.000;2023-03-01T15:45:29;7.40;;;6.80;;
2313;SDS011;42279;51.388;7.000;2023-03-01T15:47:56;7.17;;;6.60;;
2313;SDS011;42279;51.388;7.000;2023-03-01T15:50:28;7.60;;;6.23;;
2313;SDS011;42279;51.388;7.000;2023-03-01T15:52:55;6.43;;;5.87;;
2313;SDS011;42279;51.388;7.000;2023-03-01T15:55:22;7.83;;;7.07;;
2313;SDS011;42279;51.388;7.000;2023-03-01T15:57:48;6.87;;;6.37;;
2313;SDS011;42279;51.388;7.000;2023-03-01T16:00:15;6.53;;;6.10;;
2313;SDS011;42279;51.388;7.000;2023-03-01T16:02:42;7.00;;;6.40;;
2313;SDS011;42279;51.388;7.000;2023-03-01T16:05:17;7.57;;;6.87;;
2313;SDS011;42279;51.388;7.000;2023-03-01T16:07:44;6.30;;;5.90;;
2313;SDS011;42279;51.388;7.000;2023-03-01T16:10:10;8.33;;;7.30;;
2313;SDS011;42279;51.388;7.000;2023-03-01T16:12:36;10.83;;;6.30;;
2313;SDS011;42279;51.388;7.000;2023-03-01T16:15:04;7.50;;;6.03;;
2313;SDS011;42279;51.388;7.000;2023-03-01T16:17:30;8.27;;;7.57;;
2313;SDS011;42279;51.388;7.000;2023-03-01T16:19:56;9.00;;;7.47;;
2313;SDS011;42279;51.388;7.000;2023-03-01T16:22:22;7.07;;;6.47;;
2313;SDS011;42279;51.388;7.000;2023-03-01T16:24:50;7.03;;;5.80;;
2313;SDS011;42279;51.388;7.000;2023-03-01T16:27:16;6.53;;;5.90;;
2313;SDS011;42279;51.388;7.000;2023-03-01T16:29:42;6.47;;;5.97;;
2313;SDS011;42279;51.388;7.000;2023-03-01T16:32:08;7.50;;;5.80;;
2313;SDS011;42279;51.388;7.000;2023-03-01T16:34:34;6.97;;;6.27;;
2313;SDS011;42279;51.388;7.000;2023-03-01T16:37:00;7.47;;;6.00;;
2313;SDS011;42279;51.388;7.000;2023-03-01T16:39:26;7.23;;;6.63;;
2313;SDS011;42279;51.388;7.000;2023-03-01T16:41:52;5.80;;;5.50;;
2313;SDS011;42279;51.388;7.000;2023-03-01T16:44:18;8.33;;;5.57;;